Impacts TAF Board INFO
FOR SITUATIONAL AWARENESS. NOT TO BE USED FOR FLIGHT PLANNING PURPOSES.
IDs:

KSAN - San Diego Intl Arpt, CA, US

Issued at 1120 UTC 20 May 2018
Updated at 1206 UTC 20 May 2018
Potential Impact None Slight Moderate High
Time<<21/13Z 21/14Z 21/15Z 21/16Z 21/17Z 21/18Z 21/19Z 21/20Z 21/21Z 21/22Z 21/23Z 22/00Z 22/01Z
Type PRVL PRVL PRVL PRVL PRVL
VIS >6 >6 >6 >6 >6
CIG 15 15 20 20 20
Cover OVC OVC OVC OVC OVC
FltCat MVFR MVFR MVFR MVFR MVFR
WX -- -- -- -- --
WDir 210 210 190 190 190
WSpd 8 8 8 8 8
WGst -- -- -- -- --

Raw TAF
KSAN 201120Z 2012/2118 VRB05KT P6SM OVC017
  FM201900 27008KT P6SM BKN025
  FM210200 VRB05KT P6SM OVC018
  FM210600 21008KT P6SM OVC015
  FM211500 19008KT P6SM OVC020


METAR Board
Radar Display
Forecast Discussion

FOR SITUATIONAL AWARENESS. NOT TO BE USED FOR FLIGHT PLANNING PURPOSES.